Calgary / Christiansen Field

CRS3 · 艾伯塔, 加拿大

METAR的历史 CRS3 · Calgary / Christiansen Field

下面你可以看到过去几天的METARs。 选择年份以浏览从2007年开始的旧METAR。

2024年7月14日

时间 代码 天气 温度 能见度 天花板 METAR/SPECI
01:00
V
16 °C 10 mi 12.000 ft 340° 340° 5 kt METAR CYYC 140700Z 34005KT 10SM SCT056 BKN120 BKN240 16/11 A3006 RMK SC4AC2CI1 CI TR SLP172 DENSITY ALT 4500FT
00:00
V
17 °C 15 mi - 350° 350° 6 kt METAR CYYC 140600Z 35006KT 15SM FEW061 FEW120 SCT230 17/11 A3006 RMK SC1AC2CI1 SC TR SLP171 DENSITY ALT 4600FT

2024年7月13日

时间 代码 天气 温度 能见度 天花板 METAR/SPECI
23:00
V
18 °C 10 mi 12.000 ft 350° 350° 6 kt METAR CYYC 140500Z 35006KT 10SM SCT060 BKN120 18/11 A3004 RMK SC4AC2 SLP168 DENSITY ALT 4700FT
22:00
V
20 °C 15 mi - 020° 020° 11 kt METAR CYYC 140400Z 02011KT 15SM FEW120 20/11 A3003 RMK AC2 SLP163 DENSITY ALT 4900FT
21:00
V
22 °C 15 mi - 020° 020° 13 - 19 kt METAR CYYC 140300Z 02013G19KT 15SM SCT130 SCT260 22/09 A3000 RMK AC3CI1 HZ / CONTRAILS SLP153 DENSITY ALT 5100FT
20:00
V
24 °C 15 mi - 040° 040° 17 kt METAR CYYC 140200Z 04017KT 15SM FEW140 SCT260 24/09 A2999 RMK AC2CI2 HZ / CONTRAILS SLP147 DENSITY ALT 5400FT
19:00
V
26 °C 15 mi 25.000 ft 070° 070° 10 kt METAR CYYC 140100Z 07010KT 15SM FEW150 BKN250 26/10 A2997 RMK AC2CI5 CONTRAILS SLP142 DENSITY ALT 5600FT
18:00
V
26 °C 20 mi 25.000 ft 060° 060° 11 kt METAR CYYC 140000Z 06011KT 20SM FEW063CB SCT150 BKN250 26/10 A2997 RMK CB1AC2CI2 CB E MOVG E / CONTRAILS SLP142 DENSITY ALT 5600FT
17:00
V
25 °C 20 mi 14.000 ft 080° 080° 15 kt METAR CYYC 132300Z 08015KT 20SM VCSH SCT063CB BKN140 BKN250 25/12 A2997 RMK CB3AC2CI1 CB E MOVG E SLP141 DENSITY ALT 5600FT
16:29
V
26 °C 20 mi 6.500 ft 150° 150° 7 - 16 kt SPECI CYYC 132229Z 15007G16KT 080V170 20SM TS VCSH BKN065CB BKN140 BKN250 26/12 A2996 RMK CB5AC1CI1 CB OHD MOVG SE SLP137 DENSITY ALT 5700FT
16:00
V
26 °C 20 mi 14.000 ft 100° 100° 9 kt METAR CYYC 132200Z 10009KT 060V150 20SM BKN140 BKN250 26/12 A2998 RMK ACC5CI2 VIRGA / CONTRAILS SLP143 DENSITY ALT 5700FT
15:00
V
27 °C 20 mi 25.000 ft 140° 140° 8 - 15 kt METAR CYYC 132100Z 14008G15KT 110V170 20SM SCT068TCU SCT150 BKN250 27/12 A2999 RMK TCU3AC1CI2 VIRGA NW-NE SLP142 DENSITY ALT 5800FT
14:00
V
26 °C 20 mi 25.000 ft 110° 110° 10 kt METAR CYYC 132000Z 11010KT 100V180 20SM FEW057 SCT150 BKN250 26/12 A3000 RMK SC1AC3CI3 TCU ASOCTD NW / SH NW / CONTRAILS SLP148 DENSITY ALT 5700FT
13:00
V
25 °C 20 mi 25.000 ft Var Var 5 kt METAR CYYC 131900Z VRB05KT 20SM FEW058 FEW120 BKN250 25/10 A3002 RMK SC1AC1CI4 AC TR CONTRAILS SLP156 DENSITY ALT 5500FT
12:00
V
24 °C 20 mi 25.000 ft Var Var 4 kt METAR CYYC 131800Z VRB04KT 20SM FEW050 FEW120 BKN250 24/12 A3003 RMK SC1AC1CI7 SC TR AC TR TCU ASOCTD NW / CONTRAILS SLP161 DENSITY ALT 5300FT
11:00
V
21 °C 20 mi 25.000 ft 170° 170° 8 kt METAR CYYC 131700Z 17008KT 20SM FEW120 BKN250 21/11 A3005 RMK AC1CI7 AC TR CONTRAILS SLP168 DENSITY ALT 5100FT
10:00
V
20 °C 20 mi 23.000 ft 180° 180° 8 kt METAR CYYC 131600Z 18008KT 20SM FEW120 BKN230 20/11 A3005 RMK AC1CI7 AC TR CC ASOCTD SLP170 DENSITY ALT 4900FT
09:00
V
17 °C 20 mi 23.000 ft 210° 210° 2 kt METAR CYYC 131500Z 21002KT 20SM BKN230 17/11 A3006 RMK CI7 CC ASOCTD SLP176 DENSITY ALT 4600FT
08:00
V
16 °C 20 mi 25.000 ft 210° 210° 3 kt METAR CYYC 131400Z 21003KT 20SM BKN250 16/11 A3006 RMK CI7 SLP176 DENSITY ALT 4400FT
07:00
V
14 °C 15 mi - 360° 360° 0 kt METAR CYYC 131300Z 00000KT 15SM FEW140 SCT230 14/09 A3007 RMK AC1CI3 AC TR HZ / CB TOP E SLP180 DENSITY ALT 4300FT
06:00
V
13 °C 15 mi 21.000 ft 360° 360° 0 kt METAR CYYC 131200Z 00000KT 15SM SCT120 BKN210 13/09 A3008 RMK AC3CI2 SLP183 DENSITY ALT 4000FT
05:00
V
14 °C 10 mi 21.000 ft 340° 340° 2 kt METAR CYYC 131100Z 34002KT 10SM FEW040TCU BKN210 14/09 A3008 RMK TCU1CC5 TCU TR SLP182 DENSITY ALT 4200FT
04:00
V
14 °C 10 mi 21.000 ft 040° 040° 2 kt METAR CYYC 131000Z 04002KT 10SM FEW040TCU BKN210 14/09 A3007 RMK TCU1CI7 TCU TR TCU NE SLP181 DENSITY ALT 4200FT
03:00
V
16 °C 15 mi - 360° 360° 0 kt METAR CYYC 130900Z 00000KT 15SM FEW110 16/09 A3008 RMK AC1 AC TR SLP182 DENSITY ALT 4500FT
02:00
V
17 °C 15 mi - Var Var 2 kt METAR CYYC 130800Z VRB02KT 15SM FEW110 17/09 A3009 RMK AC1 AC TR SLP186 DENSITY ALT 4500FT
01:00
V
17 °C 15 mi - 120° 120° 9 kt METAR CYYC 130700Z 12009KT 15SM FEW120 17/09 A3010 RMK AC2 SLP189 DENSITY ALT 4500FT
00:00
V
17 °C 15 mi - 100° 100° 6 kt METAR CYYC 130600Z 10006KT 15SM SCT120 17/10 A3010 RMK AC3 SLP189 DENSITY ALT 4500FT

2024年7月12日

时间 代码 天气 温度 能见度 天花板 METAR/SPECI
23:00
V
19 °C 15 mi 13.000 ft 100° 100° 6 kt METAR CYYC 130500Z 10006KT 15SM BKN130 19/10 A3009 RMK AC5 OCNL LTGIC SE SLP187 DENSITY ALT 4700FT
22:00
V
20 °C 30 mi - 110° 110° 8 kt METAR CYYC 130400Z 11008KT 30SM FEW120 SCT140 20/11 A3008 RMK AC1AC4 SLP182 DENSITY ALT 4900FT
21:00
V
21 °C 20 mi 14.000 ft 110° 110° 10 kt METAR CYYC 130300Z 11010KT 20SM BKN140 21/10 A3008 RMK AC5 HZ SLP181 DENSITY ALT 5000FT
20:00
V
22 °C 15 mi 14.000 ft 120° 120° 12 kt METAR CYYC 130200Z 12012KT 15SM BKN140 22/11 A3007 RMK AC5 HZ SLP179 DENSITY ALT 5100FT
19:00
V
22 °C 20 mi 13.000 ft 130° 130° 9 kt METAR CYYC 130100Z 13009KT 20SM BKN130 22/10 A3007 RMK AC7 ACC ASOCTD SLP178 DENSITY ALT 5100FT
18:00
V
24 °C 20 mi - 150° 150° 13 kt METAR CYYC 130000Z 15013KT 110V170 20SM SCT054 SCT200 24/10 A3006 RMK SC4CI1 CI TR CB S MOVG E SLP172 DENSITY ALT 5300FT
17:00
V
24 °C 20 mi - 160° 160° 11 kt METAR CYYC 122300Z 16011KT 110V180 20SM FEW056 FEW200 24/09 A3007 RMK SC1CI1 CI TR CB TOP S MOVG E SLP175 DENSITY ALT 5300FT
16:00
V
23 °C 20 mi - 150° 150° 10 kt METAR CYYC 122200Z 15010KT 100V200 20SM FEW054 FEW180 23/09 A3008 RMK SC1AC1 SC TR AC TR SLP180 DENSITY ALT 5200FT
15:00
V
22 °C 20 mi - 140° 140° 11 kt METAR CYYC 122100Z 14011KT 130V200 20SM FEW059 22/08 A3010 RMK SC1 SC TR SLP186 DENSITY ALT 5100FT
14:00
V
22 °C 20 mi - 150° 150° 6 kt METAR CYYC 122000Z 15006KT 110V190 20SM FEW061 22/07 A3011 RMK SC1 SC TR SLP190 DENSITY ALT 5000FT
13:00
V
21 °C 20 mi - 110° 110° 7 kt METAR CYYC 121900Z 11007KT 050V160 20SM FEW063 21/07 A3013 RMK SC1 SC TR TCU ASOCTD W SLP194 DENSITY ALT 4900FT
12:00
V
20 °C 20 mi - Var Var 2 kt METAR CYYC 121800Z CCA VRB02KT 20SM FEW061 20/07 A3015 RMK SC1 SC TR SLP202 DENSITY ALT 4800FT
11:00
V
19 °C 20 mi 6.100 ft 020° 020° 3 kt METAR CYYC 121700Z 02003KT 330V080 20SM BKN061 19/06 A3016 RMK SC6 SLP207 DENSITY ALT 4700FT
10:00
V
19 °C 20 mi 6.500 ft 340° 340° 7 kt METAR CYYC 121600Z 34007KT 300V020 20SM BKN065 19/07 A3017 RMK SC7 SLP207 DENSITY ALT 4600FT
09:00
V
17 °C 20 mi 6.300 ft 360° 360° 7 kt METAR CYYC 121500Z 36007KT 20SM BKN063 17/06 A3017 RMK SC7 SLP207 DENSITY ALT 4400FT
08:11
V
17 °C 15 mi 5.800 ft 340° 340° 8 kt SPECI CYYC 121411Z 34008KT 15SM BKN058 17/09 A3017 RMK SC7 SLP206 DENSITY ALT 4400FT
08:00
V
17 °C 15 mi 5.800 ft 360° 360° 6 - 31 kt METAR CYYC 121400Z 36006G31KT 330V090 15SM BKN058 17/09 A3017 RMK SC7 SLP206 DENSITY ALT 4400FT
07:00
V
16 °C 15 mi 6.300 ft 360° 360° 10 kt METAR CYYC 121300Z 36010KT 15SM BKN063 16/10 A3017 RMK SC6 SLP204 DENSITY ALT 4300FT
06:00
V
16 °C 15 mi 6.300 ft 360° 360° 11 kt METAR CYYC 121200Z 36011KT 15SM BKN063 16/10 A3014 RMK SC7 SLP193 DENSITY ALT 4300FT
05:00
V
16 °C 15 mi - 350° 350° 11 kt METAR CYYC 121100Z 35011KT 15SM SCT055 16/11 A3010 RMK SC3 DIST SH NE/DIST TCU TOPS NE MOVG S SLP179 DENSITY ALT 4400FT
04:00
V
17 °C 15 mi 5.500 ft 360° 360° 9 kt METAR CYYC 121000Z 36009KT 15SM BKN055 17/11 A3010 RMK SC6 SLP179 DENSITY ALT 4500FT
03:00
V
17 °C 12 mi 5.700 ft 340° 340° 12 - 18 kt METAR CYYC 120900Z 34012G18KT 12SM BKN057 17/11 A3006 RMK SC6 DIST FREQ LTGIC E SLP167 DENSITY ALT 4600FT
02:00
V
18 °C 12 mi - 350° 350° 14 kt METAR CYYC 120800Z 35014KT 12SM SCT061 18/12 A3004 RMK SC3 FREQ DIST LTGIC E SLP158 DENSITY ALT 4700FT
01:00
V
20 °C 12 mi 6.000 ft 350° 350° 12 kt METAR CYYC 120700Z 35012KT 12SM BKN060 20/14 A3002 RMK SC5 SLP148 DENSITY ALT 5000FT
00:00
V
20 °C 15 mi - 360° 360° 8 kt METAR CYYC 120600Z 36008KT 15SM FEW160 20/15 A2999 RMK AC1 AC TR OCNL DIST LTNG N-NE SLP138 DENSITY ALT 5000FT
报告变更